Time;durP1;ratioP1;P1;durP2;ratioP2;P2;SDS_P1;SDS_P2;PMS_P1;PMS_P2;Temp;Humidity;BMP_temperature;BMP_pressure;BME280_temperature;BME280_humidity;BME280_pressure;Samples;Min_cycle;Max_cycle;Signal;HPM_P1;HPM_P2
2022/08/02 09:14:50;;;;;;;3.00;0.50;;;;;;;;;;5058027;28;20416;-69
2022/08/02 09:17:17;;;;;;;24.17;1.13;;;;;;;;;;5056813;28;20020;-68
2022/08/02 09:19:43;;;;;;;2.17;0.80;;;;;;;;;;5038895;28;20457;-66
2022/08/02 09:22:11;;;;;;;1.85;0.70;;;;;;;;;;5048905;28;20029;-67
2022/08/02 09:24:40;;;;;;;0.90;0.63;;;;;;;;;;5049976;28;20056;-69
2022/08/02 09:27:10;;;;;;;0.57;0.50;;;;;;;;;;5065786;28;20078;-72
2022/08/02 09:29:36;;;;;;;0.65;0.50;;;;;;;;;;5059551;28;20059;-69
2022/08/02 09:32:03;;;;;;;1.15;0.80;;;;;;;;;;5043359;28;20089;-68
2022/08/02 09:34:48;;;;;;;0.47;0.40;;;;;;;;;;5053034;28;20059;-69
2022/08/02 09:37:24;;;;;;;0.68;0.40;;;;;;;;;;5066118;28;20109;-67
2022/08/02 09:39:50;;;;;;;3.53;0.70;;;;;;;;;;5065968;28;20517;-67
2022/08/02 09:42:16;;;;;;;0.73;0.47;;;;;;;;;;5064282;28;20555;-71
2022/08/02 09:44:52;;;;;;;2.38;0.50;;;;;;;;;;5065224;28;20115;-70
2022/08/02 09:47:19;;;;;;;2.92;0.60;;;;;;;;;;5066754;28;20021;-70
2022/08/02 09:49:46;;;;;;;6.45;1.20;;;;;;;;;;5063057;28;20468;-69
2022/08/02 09:52:12;;;;;;;4.32;1.77;;;;;;;;;;5061679;28;20495;-69
2022/08/02 09:54:38;;;;;;;2.80;1.35;;;;;;;;;;5045617;28;20041;-66
2022/08/02 09:57:04;;;;;;;6.70;1.38;;;;;;;;;;5053947;28;20025;-70
2022/08/02 09:59:30;;;;;;;9.73;2.58;;;;;;;;;;5066966;28;20541;-69
2022/08/02 10:01:57;;;;;;;9.13;2.20;;;;;;;;;;5054007;28;20028;-68
2022/08/02 10:04:24;;;;;;;4.90;2.17;;;;;;;;;;5060917;28;20036;-69
2022/08/02 10:06:50;;;;;;;12.77;2.75;;;;;;;;;;5046403;28;20061;-70
2022/08/02 10:09:16;;;;;;;9.02;2.35;;;;;;;;;;5045917;28;20036;-66
2022/08/02 10:11:43;;;;;;;7.72;2.88;;;;;;;;;;5044803;28;20033;-69
2022/08/02 10:14:09;;;;;;;12.85;3.05;;;;;;;;;;5050411;28;20471;-69
2022/08/02 10:16:39;;;;;;;10.50;2.53;;;;;;;;;;5064103;28;20060;-68
2022/08/02 10:19:05;;;;;;;10.85;3.30;;;;;;;;;;5064773;28;20017;-68
2022/08/02 10:21:32;;;;;;;11.23;3.30;;;;;;;;;;5063343;28;20025;-67
2022/08/02 10:24:05;;;;;;;9.23;3.17;;;;;;;;;;5046468;28;20363;-69
2022/08/02 10:26:31;;;;;;;10.48;3.55;;;;;;;;;;5032292;28;20038;-67
2022/08/02 10:28:57;;;;;;;11.77;2.97;;;;;;;;;;5032888;28;20029;-67
2022/08/02 10:31:25;;;;;;;5.47;2.00;;;;;;;;;;5047039;28;20411;-67
2022/08/02 10:33:51;;;;;;;5.85;1.95;;;;;;;;;;5043956;28;20026;-67
2022/08/02 10:36:17;;;;;;;11.65;2.33;;;;;;;;;;5038889;28;20167;-67
2022/08/02 10:38:44;;;;;;;9.73;2.40;;;;;;;;;;5050764;28;20021;-66
2022/08/02 10:41:10;;;;;;;6.32;2.67;;;;;;;;;;5052441;28;20115;-68
2022/08/02 10:43:36;;;;;;;6.95;2.70;;;;;;;;;;5065751;28;20392;-69
2022/08/02 10:46:20;;;;;;;4.63;1.77;;;;;;;;;;5051253;28;20454;-70
2022/08/02 10:49:01;;;;;;;6.53;1.60;;;;;;;;;;5052506;28;20029;-69
2022/08/02 10:51:46;;;;;;;3.92;1.30;;;;;;;;;;5052880;28;20547;-71
2022/08/02 10:54:16;;;;;;;2.88;0.80;;;;;;;;;;5020966;28;20075;-70
2022/08/02 10:56:46;;;;;;;1.92;0.82;;;;;;;;;;5051120;28;20025;-71
2022/08/02 10:59:27;;;;;;;7.25;1.05;;;;;;;;;;5051063;28;20456;-69
2022/08/02 11:02:00;;;;;;;1.30;0.90;;;;;;;;;;5047962;28;20029;-70
2022/08/02 11:04:27;;;;;;;3.58;0.82;;;;;;;;;;5052285;28;20021;-71
2022/08/02 11:07:13;;;;;;;5.93;1.48;;;;;;;;;;5049822;28;20037;-72
2022/08/02 11:09:39;;;;;;;16.65;1.70;;;;;;;;;;5031708;28;20033;-73
2022/08/02 11:12:06;;;;;;;2.75;1.10;;;;;;;;;;5040950;28;20080;-71
2022/08/02 11:14:34;;;;;;;1.42;1.00;;;;;;;;;;5041319;28;20049;-70
2022/08/02 11:17:04;;;;;;;4.15;1.40;;;;;;;;;;5032549;28;20430;-70
2022/08/02 11:19:30;;;;;;;5.78;1.42;;;;;;;;;;5032917;28;20029;-71
2022/08/02 11:22:02;;;;;;;5.05;2.03;;;;;;;;;;5049027;28;20061;-71
2022/08/02 11:24:30;;;;;;;8.05;2.67;;;;;;;;;;5033507;28;20025;-73
2022/08/02 11:26:56;;;;;;;8.85;3.25;;;;;;;;;;5037051;28;20033;-74
2022/08/02 11:29:22;;;;;;;7.88;3.80;;;;;;;;;;5027837;28;20026;-72
2022/08/02 11:31:48;;;;;;;12.75;3.75;;;;;;;;;;5032000;28;20033;-71
2022/08/02 11:34:15;;;;;;;11.75;3.45;;;;;;;;;;5031922;28;20033;-70
2022/08/02 11:36:45;;;;;;;9.95;3.60;;;;;;;;;;5033129;28;20071;-70
2022/08/02 11:39:12;;;;;;;7.90;3.10;;;;;;;;;;5047122;28;20036;-71
2022/08/02 11:41:38;;;;;;;5.28;2.40;;;;;;;;;;5040709;28;20022;-71
2022/08/02 11:44:04;;;;;;;8.55;3.20;;;;;;;;;;5041024;28;20064;-71
2022/08/02 11:46:30;;;;;;;19.00;4.95;;;;;;;;;;5043537;28;20029;-71
2022/08/02 11:48:56;;;;;;;14.95;4.45;;;;;;;;;;5043507;28;20056;-72
2022/08/02 11:51:23;;;;;;;11.25;4.45;;;;;;;;;;5031164;28;20164;-75
2022/08/02 11:53:50;;;;;;;8.73;4.20;;;;;;;;;;5032157;28;20025;-74
2022/08/02 11:56:17;;;;;;;7.63;4.55;;;;;;;;;;5028887;28;20024;-74
2022/08/02 11:59:02;;;;;;;7.60;3.95;;;;;;;;;;5023592;28;20060;-76
2022/08/02 12:01:29;;;;;;;7.80;3.25;;;;;;;;;;5034653;28;20028;-74
2022/08/02 12:03:59;;;;;;;11.82;3.50;;;;;;;;;;5042010;28;20045;-73
2022/08/02 12:06:28;;;;;;;12.77;3.78;;;;;;;;;;5033551;28;20087;-75
2022/08/02 12:09:04;;;;;;;9.90;4.47;;;;;;;;;;5031088;28;20402;-74
2022/08/02 12:11:30;;;;;;;13.38;4.22;;;;;;;;;;5030846;28;20543;-68
2022/08/02 12:13:56;;;;;;;11.18;4.68;;;;;;;;;;5046632;28;20045;-70
2022/08/02 12:19:21;;;;;;;14.82;3.38;;;;;;;;;;5040789;28;20116;-72
2022/08/02 12:21:48;;;;;;;15.23;3.58;;;;;;;;;;5050166;28;20433;-72
2022/08/02 12:24:14;;;;;;;17.15;4.20;;;;;;;;;;5046794;28;20024;-71
2022/08/02 12:26:46;;;;;;;11.32;4.05;;;;;;;;;;5030442;28;20033;-77
2022/08/02 12:29:12;;;;;;;13.68;3.63;;;;;;;;;;5050833;28;20033;-76
2022/08/02 12:31:39;;;;;;;15.45;4.32;;;;;;;;;;5048480;28;20430;-76
2022/08/02 12:34:19;;;;;;;13.93;4.65;;;;;;;;;;5041611;28;20037;-79
2022/08/02 12:37:05;;;;;;;16.00;3.45;;;;;;;;;;5043533;28;20017;-80
2022/08/02 12:39:35;;;;;;;12.32;2.78;;;;;;;;;;5029537;28;20024;-75
2022/08/02 12:42:02;;;;;;;11.90;3.50;;;;;;;;;;5043207;28;20040;-73
2022/08/02 12:44:28;;;;;;;12.07;3.70;;;;;;;;;;5040346;28;20056;-73
2022/08/02 12:47:01;;;;;;;14.65;4.28;;;;;;;;;;5030480;28;20025;-72
2022/08/02 12:49:27;;;;;;;10.18;3.10;;;;;;;;;;5029998;28;20065;-72
2022/08/02 12:51:53;;;;;;;5.50;2.97;;;;;;;;;;5029281;28;20025;-72
2022/08/02 12:54:20;;;;;;;10.93;3.40;;;;;;;;;;5030340;28;20096;-68
2022/08/02 12:56:46;;;;;;;10.07;3.28;;;;;;;;;;5030720;28;20108;-71
2022/08/02 12:59:12;;;;;;;23.85;3.63;;;;;;;;;;5038725;28;20439;-70
2022/08/02 13:01:38;;;;;;;4.78;2.90;;;;;;;;;;5050210;28;20024;-71
2022/08/02 13:04:05;;;;;;;11.38;3.33;;;;;;;;;;5048160;28;20030;-71
2022/08/02 13:06:31;;;;;;;9.93;2.88;;;;;;;;;;5029107;28;20041;-70
2022/08/02 13:08:57;;;;;;;7.45;2.95;;;;;;;;;;5043734;28;20504;-70
2022/08/02 13:11:23;;;;;;;8.82;2.55;;;;;;;;;;5044649;28;20043;-70
2022/08/02 13:13:49;;;;;;;11.93;3.13;;;;;;;;;;5030299;28;20054;-70
2022/08/02 13:16:16;;;;;;;8.05;2.92;;;;;;;;;;5028915;28;20021;-70
2022/08/02 13:18:42;;;;;;;8.55;2.67;;;;;;;;;;5044683;28;20032;-70
2022/08/02 13:21:09;;;;;;;9.45;3.58;;;;;;;;;;5046607;28;20495;-70
2022/08/02 13:23:35;;;;;;;13.90;4.03;;;;;;;;;;5029612;28;20500;-69
2022/08/02 13:26:02;;;;;;;11.73;3.33;;;;;;;;;;5033492;28;20027;-70
2022/08/02 13:28:28;;;;;;;7.32;2.75;;;;;;;;;;5046686;28;20491;-69
2022/08/02 13:30:54;;;;;;;13.95;3.88;;;;;;;;;;5039571;28;20071;-69
2022/08/02 13:33:20;;;;;;;6.93;2.30;;;;;;;;;;5051288;28;20484;-67
2022/08/02 13:35:46;;;;;;;9.02;3.38;;;;;;;;;;5017869;28;20024;-66
2022/08/02 13:38:12;;;;;;;5.60;2.63;;;;;;;;;;5017980;28;20399;-68
2022/08/02 13:43:23;;;;;;;19.42;3.63;;;;;;;;;;5016820;28;20091;-68
2022/08/02 13:45:49;;;;;;;15.65;4.78;;;;;;;;;;5018547;28;20033;-65
2022/08/02 13:48:15;;;;;;;13.45;3.15;;;;;;;;;;5010777;28;20485;-66
2022/08/02 13:50:41;;;;;;;11.27;3.50;;;;;;;;;;5014180;28;20032;-67
2022/08/02 13:53:07;;;;;;;23.77;5.07;;;;;;;;;;5020808;28;20029;-68
2022/08/02 13:55:33;;;;;;;18.85;4.45;;;;;;;;;;5013330;28;20379;-67
2022/08/02 13:57:59;;;;;;;16.13;4.57;;;;;;;;;;5019038;28;20026;-65
2022/08/02 14:00:25;;;;;;;16.80;5.63;;;;;;;;;;5019664;28;20017;-65
2022/08/02 14:02:51;;;;;;;22.23;6.03;;;;;;;;;;5011601;28;20077;-66
2022/08/02 14:05:17;;;;;;;14.77;4.38;;;;;;;;;;5020912;28;20080;-65
2022/08/02 14:07:43;;;;;;;15.38;4.03;;;;;;;;;;5023747;28;20116;-64
2022/08/02 14:10:09;;;;;;;8.55;2.63;;;;;;;;;;5021561;28;20478;-65
2022/08/02 14:12:35;;;;;;;9.40;2.88;;;;;;;;;;5014957;28;20415;-65
2022/08/02 14:15:01;;;;;;;7.05;2.70;;;;;;;;;;5022826;28;20017;-65
2022/08/02 14:17:27;;;;;;;9.32;2.90;;;;;;;;;;5019987;28;20024;-65
2022/08/02 14:19:53;;;;;;;5.03;2.90;;;;;;;;;;5021142;28;20017;-65
2022/08/02 14:22:19;;;;;;;7.32;2.50;;;;;;;;;;5022227;28;20030;-65
2022/08/02 14:24:46;;;;;;;6.82;2.47;;;;;;;;;;5020213;28;20029;-64
2022/08/02 14:27:12;;;;;;;7.30;2.53;;;;;;;;;;5021841;28;20032;-66
2022/08/02 14:29:38;;;;;;;5.10;2.47;;;;;;;;;;5021285;28;20030;-66
2022/08/02 14:32:04;;;;;;;5.03;2.20;;;;;;;;;;5021961;28;20026;-65
2022/08/02 14:34:30;;;;;;;9.93;2.20;;;;;;;;;;5020710;28;20484;-66
2022/08/02 14:36:56;;;;;;;5.35;2.10;;;;;;;;;;5022206;28;20017;-65
2022/08/02 14:39:22;;;;;;;7.05;2.20;;;;;;;;;;5020531;28;20488;-65
2022/08/02 14:41:48;;;;;;;6.57;1.65;;;;;;;;;;5026524;28;20538;-64
2022/08/02 14:44:15;;;;;;;51.83;5.82;;;;;;;;;;5017963;28;20029;-67
2022/08/02 14:46:41;;;;;;;4.03;1.67;;;;;;;;;;5023786;28;20514;-65
2022/08/02 14:49:07;;;;;;;5.32;2.13;;;;;;;;;;5018273;28;20039;-66
2022/08/02 14:51:34;;;;;;;9.98;2.83;;;;;;;;;;5020487;28;20173;-67
2022/08/02 14:54:00;;;;;;;1103.38;120.13;;;;;;;;;;5019016;28;20110;-68
2022/08/02 14:56:26;;;;;;;383.10;34.33;;;;;;;;;;5026361;28;20017;-69
2022/08/02 14:58:53;;;;;;;39.42;5.47;;;;;;;;;;5020382;28;20503;-65
2022/08/02 15:01:19;;;;;;;29.42;3.72;;;;;;;;;;5025988;28;20028;-65
2022/08/02 15:03:45;;;;;;;20.45;2.65;;;;;;;;;;5017027;28;20040;-65
2022/08/02 15:06:11;;;;;;;9.20;3.00;;;;;;;;;;5016201;28;20053;-66
2022/08/02 15:08:37;;;;;;;139.93;9.23;;;;;;;;;;5017796;28;20033;-65
2022/08/02 15:11:03;;;;;;;18.08;2.97;;;;;;;;;;5027631;28;20031;-66
2022/08/02 15:13:29;;;;;;;22.75;2.80;;;;;;;;;;5017587;28;20080;-65
2022/08/02 15:15:55;;;;;;;22.33;3.63;;;;;;;;;;5021884;28;20491;-65
2022/08/02 15:18:21;;;;;;;44.15;4.55;;;;;;;;;;5019702;28;20022;-65
2022/08/02 15:20:47;;;;;;;16.75;3.92;;;;;;;;;;5016328;28;20034;-65
2022/08/02 15:23:14;;;;;;;57.92;7.82;;;;;;;;;;5022862;28;20037;-65
2022/08/02 15:25:40;;;;;;;15.68;3.60;;;;;;;;;;5020199;28;20086;-65
2022/08/02 15:28:09;;;;;;;34.00;4.43;;;;;;;;;;5016938;28;20038;-66
2022/08/02 15:30:36;;;;;;;19.67;4.22;;;;;;;;;;5021982;28;20025;-67
2022/08/02 15:33:02;;;;;;;22.63;3.92;;;;;;;;;;5022716;28;20427;-66
2022/08/02 15:35:28;;;;;;;22.23;5.28;;;;;;;;;;5014590;28;20029;-67
2022/08/02 15:37:54;;;;;;;12.13;4.07;;;;;;;;;;5022522;28;20021;-67
2022/08/02 15:40:21;;;;;;;14.65;3.63;;;;;;;;;;5022400;28;20099;-69
2022/08/02 15:42:47;;;;;;;34.42;5.15;;;;;;;;;;5023273;28;20037;-66
2022/08/02 15:45:13;;;;;;;115.07;9.75;;;;;;;;;;5022393;28;20017;-68
2022/08/02 15:47:39;;;;;;;28.85;4.97;;;;;;;;;;5018975;28;21197;-66
2022/08/02 15:51:26;;;;;;;14.30;3.65;;;;;;;;;;5064187;27;20911;-67
2022/08/02 15:53:52;;;;;;;14.45;4.10;;;;;;;;;;5065041;28;20053;-68
2022/08/02 15:56:18;;;;;;;12.00;3.50;;;;;;;;;;5068754;28;20574;-70
2022/08/02 15:58:44;;;;;;;70.68;7.90;;;;;;;;;;5057708;28;20040;-69
2022/08/02 16:01:10;;;;;;;10.50;2.70;;;;;;;;;;5058755;28;20075;-68
2022/08/02 16:03:36;;;;;;;13.80;3.05;;;;;;;;;;5059463;28;20017;-68
2022/08/02 16:06:02;;;;;;;25.80;2.42;;;;;;;;;;5057978;28;20446;-68
2022/08/02 16:08:28;;;;;;;6.10;2.25;;;;;;;;;;5057122;28;20025;-67
2022/08/02 16:10:55;;;;;;;13.43;2.85;;;;;;;;;;5065109;28;20031;-68
2022/08/02 16:16:05;;;;;;;8.00;2.60;;;;;;;;;;5060737;28;20047;-66
2022/08/02 16:18:31;;;;;;;18.73;3.03;;;;;;;;;;5065943;28;20479;-66
2022/08/02 16:20:57;;;;;;;9.57;2.75;;;;;;;;;;5059028;28;20091;-66
2022/08/02 16:23:23;;;;;;;7.40;2.22;;;;;;;;;;5066444;28;20090;-67
2022/08/02 16:25:50;;;;;;;8.23;2.53;;;;;;;;;;5068727;28;20020;-67
2022/08/02 16:28:16;;;;;;;9.95;2.63;;;;;;;;;;5062571;28;20028;-66
2022/08/02 16:30:42;;;;;;;6.97;2.50;;;;;;;;;;5070154;28;20035;-66
2022/08/02 16:33:08;;;;;;;6.38;2.20;;;;;;;;;;5069069;28;20621;-67
2022/08/02 16:35:34;;;;;;;11.63;2.80;;;;;;;;;;5067648;28;20031;-66
2022/08/02 16:38:00;;;;;;;8.38;3.00;;;;;;;;;;5067027;28;20103;-66
2022/08/02 16:40:26;;;;;;;9.23;3.05;;;;;;;;;;5074470;28;20032;-66
2022/08/02 16:42:53;;;;;;;8.93;2.65;;;;;;;;;;5086808;28;20024;-66
2022/08/02 16:45:19;;;;;;;10.38;2.80;;;;;;;;;;5087103;28;20033;-66
2022/08/02 16:47:46;;;;;;;8.68;2.63;;;;;;;;;;5086727;28;20475;-66
2022/08/02 16:50:12;;;;;;;9.75;2.47;;;;;;;;;;5086262;28;20040;-67
2022/08/02 16:52:38;;;;;;;6.35;2.38;;;;;;;;;;5086187;28;20033;-65
2022/08/02 16:55:04;;;;;;;6.45;2.95;;;;;;;;;;5085945;28;20028;-66
2022/08/02 16:57:30;;;;;;;14.85;3.42;;;;;;;;;;5086949;28;20483;-65
2022/08/02 16:59:56;;;;;;;8.38;2.42;;;;;;;;;;5096874;28;20028;-65
2022/08/02 17:02:22;;;;;;;11.35;2.33;;;;;;;;;;5094982;28;20040;-66
2022/08/02 17:04:48;;;;;;;7.05;3.95;;;;;;;;;;5093673;28;20039;-67
2022/08/02 17:07:14;;;;;;;5.28;2.22;;;;;;;;;;5090666;28;20495;-66
2022/08/02 17:09:40;;;;;;;9.25;2.38;;;;;;;;;;5093257;28;20024;-66
2022/08/02 17:12:07;;;;;;;13.32;2.38;;;;;;;;;;5088282;28;20055;-66
2022/08/02 17:14:36;;;;;;;7.15;2.22;;;;;;;;;;5073170;28;20360;-66
2022/08/02 17:17:02;;;;;;;8.70;2.60;;;;;;;;;;5076169;28;20021;-66
2022/08/02 17:19:28;;;;;;;17.35;3.75;;;;;;;;;;5093450;28;20393;-66
2022/08/02 17:21:54;;;;;;;9.82;2.17;;;;;;;;;;5091482;28;20842;-66
2022/08/02 17:24:20;;;;;;;10.27;2.13;;;;;;;;;;5091569;28;20028;-66
2022/08/02 17:26:46;;;;;;;6.05;2.08;;;;;;;;;;5086066;28;20024;-66
2022/08/02 17:29:12;;;;;;;5.53;2.55;;;;;;;;;;5078806;28;20043;-67
2022/08/02 17:31:38;;;;;;;6.85;2.35;;;;;;;;;;5073484;28;20068;-66
2022/08/02 17:34:04;;;;;;;9.43;2.10;;;;;;;;;;5074066;28;20032;-67
2022/08/02 17:36:30;;;;;;;7.63;2.38;;;;;;;;;;5072976;28;20032;-67
2022/08/02 17:38:57;;;;;;;14.68;2.72;;;;;;;;;;5089537;28;20394;-66
2022/08/02 17:41:23;;;;;;;8.80;2.63;;;;;;;;;;5091065;28;20037;-67
2022/08/02 17:43:49;;;;;;;12.82;2.72;;;;;;;;;;5089639;28;20074;-66
2022/08/02 17:46:15;;;;;;;6.45;2.42;;;;;;;;;;5086941;28;20024;-66
2022/08/02 17:51:44;;;;;;;15.18;2.60;;;;;;;;;;5061027;28;20118;-66
2022/08/02 17:54:10;;;;;;;11.63;2.35;;;;;;;;;;5070511;28;20021;-65
2022/08/02 17:56:36;;;;;;;7.82;3.47;;;;;;;;;;5077893;28;20032;-65
2022/08/02 17:59:13;;;;;;;13.93;2.72;;;;;;;;;;5090650;28;20554;-65
2022/08/02 18:01:39;;;;;;;11.65;3.00;;;;;;;;;;5086579;28;20028;-66
2022/08/02 18:04:05;;;;;;;5.28;2.35;;;;;;;;;;5091936;28;20023;-67
2022/08/02 18:06:31;;;;;;;9.40;2.65;;;;;;;;;;5042445;28;20141;-67
2022/08/02 18:08:57;;;;;;;11.45;3.05;;;;;;;;;;5056295;28;20670;-68
2022/08/02 18:11:23;;;;;;;17.10;2.95;;;;;;;;;;5047697;28;20016;-68
2022/08/02 18:13:49;;;;;;;14.77;2.80;;;;;;;;;;5049164;28;20236;-68
2022/08/02 18:16:15;;;;;;;6.53;2.88;;;;;;;;;;5048156;28;20025;-66
2022/08/02 18:18:41;;;;;;;13.90;3.58;;;;;;;;;;5043446;28;20440;-66
2022/08/02 18:21:10;;;;;;;9.63;2.78;;;;;;;;;;5043017;28;20047;-66
2022/08/02 18:23:36;;;;;;;7.82;2.92;;;;;;;;;;5043321;28;20039;-67
2022/08/02 18:26:02;;;;;;;20.25;3.85;;;;;;;;;;5042050;28;20020;-66
2022/08/02 18:28:28;;;;;;;14.77;3.45;;;;;;;;;;5047424;28;20031;-65
2022/08/02 18:30:54;;;;;;;10.80;3.35;;;;;;;;;;5051426;28;20521;-66
2022/08/02 18:33:20;;;;;;;12.75;3.45;;;;;;;;;;5056156;28;20032;-67
2022/08/02 18:35:46;;;;;;;10.25;2.85;;;;;;;;;;5045907;28;20028;-67
2022/08/02 18:38:13;;;;;;;9.23;2.88;;;;;;;;;;5046184;28;20028;-67
2022/08/02 18:40:40;;;;;;;11.00;3.65;;;;;;;;;;5051829;28;20032;-66
2022/08/02 18:43:06;;;;;;;15.18;3.70;;;;;;;;;;5050451;28;20421;-67
2022/08/02 18:45:32;;;;;;;10.57;3.25;;;;;;;;;;5050809;28;20055;-68
2022/08/02 18:47:58;;;;;;;12.95;3.20;;;;;;;;;;5049505;28;20496;-66
2022/08/02 18:50:24;;;;;;;12.40;3.05;;;;;;;;;;5042879;28;20137;-67
2022/08/02 18:52:50;;;;;;;10.15;3.50;;;;;;;;;;5033175;28;20439;-66
2022/08/02 18:55:16;;;;;;;15.35;3.55;;;;;;;;;;5037256;28;20395;-66
2022/08/02 18:57:42;;;;;;;15.05;2.97;;;;;;;;;;5052401;28;20029;-66
2022/08/02 19:00:09;;;;;;;12.10;3.45;;;;;;;;;;5069718;28;20029;-66
2022/08/02 19:02:35;;;;;;;18.42;3.78;;;;;;;;;;5059957;28;20105;-67
2022/08/02 19:05:01;;;;;;;10.45;2.85;;;;;;;;;;5053922;28;20025;-67
2022/08/02 19:07:27;;;;;;;16.42;2.92;;;;;;;;;;5077230;28;20116;-65
2022/08/02 19:09:54;;;;;;;11.52;3.45;;;;;;;;;;5070008;28;20024;-66
2022/08/02 19:12:20;;;;;;;13.25;3.60;;;;;;;;;;5086492;28;20109;-66
2022/08/02 19:14:46;;;;;;;12.35;3.22;;;;;;;;;;5090579;28;20119;-67
2022/08/02 19:17:12;;;;;;;16.35;3.03;;;;;;;;;;5082656;28;20020;-66
2022/08/02 19:19:38;;;;;;;10.40;2.90;;;;;;;;;;5070832;28;20031;-66
2022/08/02 19:22:04;;;;;;;14.75;3.65;;;;;;;;;;5079266;28;20031;-66
2022/08/02 19:24:30;;;;;;;12.98;2.83;;;;;;;;;;5068582;28;20032;-66
2022/08/02 19:26:57;;;;;;;20.30;4.28;;;;;;;;;;5071906;28;20103;-66
2022/08/02 19:29:23;;;;;;;11.48;2.75;;;;;;;;;;5080397;28;20051;-66
2022/08/02 19:31:50;;;;;;;20.17;4.18;;;;;;;;;;5071272;28;20036;-67
2022/08/02 19:34:16;;;;;;;8.77;3.30;;;;;;;;;;5074884;28;20028;-67
2022/08/02 19:36:42;;;;;;;16.42;3.50;;;;;;;;;;5070575;28;20025;-68
2022/08/02 19:39:08;;;;;;;15.05;4.03;;;;;;;;;;5071847;28;20029;-67
2022/08/02 19:41:34;;;;;;;12.05;3.80;;;;;;;;;;5050708;28;20044;-67
2022/08/02 19:44:00;;;;;;;13.63;4.63;;;;;;;;;;5057430;28;20472;-68
2022/08/02 19:46:29;;;;;;;12.82;3.75;;;;;;;;;;5080576;28;20507;-67
2022/08/02 19:48:55;;;;;;;16.38;3.28;;;;;;;;;;5069345;28;20321;-68
2022/08/02 19:51:21;;;;;;;11.20;3.30;;;;;;;;;;5071376;28;20037;-67
2022/08/02 19:53:47;;;;;;;14.23;3.38;;;;;;;;;;5077629;28;20028;-67
2022/08/02 19:56:13;;;;;;;16.65;3.58;;;;;;;;;;5071374;28;20031;-67
2022/08/02 19:58:40;;;;;;;13.15;3.63;;;;;;;;;;5070259;28;20024;-67
2022/08/02 20:01:06;;;;;;;12.82;3.15;;;;;;;;;;5070188;28;20024;-68
2022/08/02 20:03:33;;;;;;;16.20;4.03;;;;;;;;;;5069724;28;20021;-66
2022/08/02 20:05:59;;;;;;;13.07;3.22;;;;;;;;;;5078029;28;20431;-66
2022/08/02 20:08:25;;;;;;;9.20;3.33;;;;;;;;;;5084988;28;20368;-67
2022/08/02 20:10:51;;;;;;;6.85;3.65;;;;;;;;;;5083469;28;20029;-68
2022/08/02 20:13:17;;;;;;;11.30;3.63;;;;;;;;;;5064199;28;20116;-67
2022/08/02 20:15:43;;;;;;;16.58;4.40;;;;;;;;;;5070103;28;20549;-67
2022/08/02 20:18:09;;;;;;;22.17;3.78;;;;;;;;;;5070005;28;20051;-67
2022/08/02 20:20:37;;;;;;;11.38;3.38;;;;;;;;;;5070336;28;20063;-67
2022/08/02 20:23:17;;;;;;;10.10;3.25;;;;;;;;;;5073333;28;20024;-67
2022/08/02 20:25:46;;;;;;;14.55;3.20;;;;;;;;;;5055903;28;20062;-67
2022/08/02 20:28:12;;;;;;;17.20;3.63;;;;;;;;;;5069929;28;20025;-66
2022/08/02 20:30:38;;;;;;;12.38;3.03;;;;;;;;;;5069853;28;20025;-67
2022/08/02 20:33:08;;;;;;;13.63;3.42;;;;;;;;;;5074595;28;20690;-66
2022/08/02 20:35:34;;;;;;;12.68;2.92;;;;;;;;;;5059096;28;20035;-67
2022/08/02 20:38:00;;;;;;;13.95;4.30;;;;;;;;;;5072154;28;20052;-67
2022/08/02 20:40:26;;;;;;;10.27;3.53;;;;;;;;;;5076623;28;20081;-67
2022/08/02 20:42:55;;;;;;;10.77;3.95;;;;;;;;;;5073536;28;20024;-67
2022/08/02 20:45:22;;;;;;;19.25;3.53;;;;;;;;;;5071719;28;20097;-66
2022/08/02 20:47:49;;;;;;;14.40;3.50;;;;;;;;;;5073548;28;20159;-67
2022/08/02 20:53:00;;;;;;;13.80;4.20;;;;;;;;;;5065697;28;20035;-67
2022/08/02 20:55:27;;;;;;;13.05;3.80;;;;;;;;;;5071916;28;20403;-66
2022/08/02 20:57:53;;;;;;;12.65;3.53;;;;;;;;;;5073112;28;20562;-67
2022/08/02 21:00:20;;;;;;;20.08;5.00;;;;;;;;;;5072991;28;20028;-66
2022/08/02 21:02:46;;;;;;;13.35;3.75;;;;;;;;;;5073623;28;20036;-65
2022/08/02 21:05:12;;;;;;;11.05;3.50;;;;;;;;;;5083657;28;20034;-66
2022/08/02 21:07:38;;;;;;;19.80;3.67;;;;;;;;;;5092802;28;20024;-67
2022/08/02 21:10:05;;;;;;;15.05;3.67;;;;;;;;;;5091407;28;20119;-65
2022/08/02 21:12:31;;;;;;;18.27;4.18;;;;;;;;;;5090952;28;20022;-66
2022/08/02 21:14:58;;;;;;;15.90;4.03;;;;;;;;;;5092963;28;20035;-66
2022/08/02 21:17:24;;;;;;;9.60;3.50;;;;;;;;;;5090353;28;20089;-66
2022/08/02 21:19:50;;;;;;;9.32;3.42;;;;;;;;;;5052816;28;20036;-65
2022/08/02 21:22:17;;;;;;;13.13;4.15;;;;;;;;;;5065603;28;20059;-66
2022/08/02 21:24:43;;;;;;;15.52;3.75;;;;;;;;;;5093076;28;20137;-65
2022/08/02 21:27:09;;;;;;;10.57;3.65;;;;;;;;;;5092260;28;20031;-66
2022/08/02 21:29:35;;;;;;;17.05;3.72;;;;;;;;;;5074291;28;20107;-65
2022/08/02 21:32:01;;;;;;;19.75;4.47;;;;;;;;;;5072497;28;20028;-66
2022/08/02 21:34:28;;;;;;;10.82;3.50;;;;;;;;;;5091418;28;20020;-66
2022/08/02 21:36:54;;;;;;;16.92;4.28;;;;;;;;;;5091835;28;20361;-66
2022/08/02 21:39:20;;;;;;;12.38;3.58;;;;;;;;;;5075893;28;20024;-66
2022/08/02 21:41:46;;;;;;;13.60;3.05;;;;;;;;;;5070848;28;20028;-66
2022/08/02 21:44:13;;;;;;;19.10;4.15;;;;;;;;;;5077169;28;20033;-66
2022/08/02 21:46:39;;;;;;;14.38;4.10;;;;;;;;;;5072583;28;20387;-67
2022/08/02 21:49:05;;;;;;;13.60;3.40;;;;;;;;;;5084740;28;20489;-66
2022/08/02 21:51:31;;;;;;;7.80;2.92;;;;;;;;;;5084742;28;20032;-66
2022/08/02 21:53:58;;;;;;;12.48;3.47;;;;;;;;;;5084442;28;20428;-66
2022/08/02 21:56:24;;;;;;;15.05;3.28;;;;;;;;;;5079961;28;20020;-66
2022/08/02 21:58:50;;;;;;;16.50;3.65;;;;;;;;;;5083258;28;20020;-67
2022/08/02 22:01:16;;;;;;;12.32;3.95;;;;;;;;;;5089767;28;20125;-67
2022/08/02 22:03:42;;;;;;;11.48;3.38;;;;;;;;;;5084802;28;20024;-65
2022/08/02 22:06:08;;;;;;;12.88;3.88;;;;;;;;;;5071574;28;20028;-66
2022/08/02 22:08:34;;;;;;;12.57;4.05;;;;;;;;;;5075602;28;20099;-66
2022/08/02 22:11:00;;;;;;;11.30;3.60;;;;;;;;;;5066534;28;20104;-66
2022/08/02 22:13:27;;;;;;;16.75;3.70;;;;;;;;;;5092111;28;20402;-66
2022/08/02 22:15:53;;;;;;;22.80;5.05;;;;;;;;;;5090488;28;20119;-66
2022/08/02 22:18:19;;;;;;;10.93;2.90;;;;;;;;;;5077057;28;20047;-65
2022/08/02 22:20:45;;;;;;;11.95;3.10;;;;;;;;;;5071438;28;20033;-65
2022/08/02 22:23:11;;;;;;;11.85;3.45;;;;;;;;;;5087545;28;20058;-67
2022/08/02 22:25:37;;;;;;;15.27;4.22;;;;;;;;;;5091980;28;20032;-66
2022/08/02 22:28:04;;;;;;;9.88;2.78;;;;;;;;;;5088776;28;20107;-67
2022/08/02 22:30:30;;;;;;;11.85;3.55;;;;;;;;;;5091773;28;20114;-66
2022/08/02 22:35:41;;;;;;;11.00;3.10;;;;;;;;;;5091414;28;20120;-67
2022/08/02 22:38:07;;;;;;;25.60;4.55;;;;;;;;;;5072452;28;20035;-67
2022/08/02 22:40:34;;;;;;;20.25;4.40;;;;;;;;;;5070282;28;20032;-67
2022/08/02 22:43:00;;;;;;;15.65;3.20;;;;;;;;;;5074713;28;20433;-67
2022/08/02 22:45:26;;;;;;;15.80;4.18;;;;;;;;;;5089499;28;20084;-66
2022/08/02 22:47:52;;;;;;;9.25;3.50;;;;;;;;;;5090307;28;20505;-67
2022/08/02 22:50:18;;;;;;;9.80;2.63;;;;;;;;;;5091030;28;20055;-66
2022/08/02 22:52:44;;;;;;;13.18;3.25;;;;;;;;;;5071749;28;20025;-66
2022/08/02 22:55:10;;;;;;;22.17;3.58;;;;;;;;;;5091457;28;20433;-66
2022/08/02 22:57:36;;;;;;;23.13;3.70;;;;;;;;;;5087063;28;20031;-66
2022/08/02 23:00:07;;;;;;;12.45;3.25;;;;;;;;;;5089347;28;20031;-66
2022/08/02 23:02:33;;;;;;;21.48;4.25;;;;;;;;;;5091347;28;20020;-67
2022/08/02 23:04:59;;;;;;;12.77;3.85;;;;;;;;;;5084248;28;20039;-66
2022/08/02 23:07:25;;;;;;;14.82;3.30;;;;;;;;;;5070577;28;20029;-66
2022/08/02 23:09:51;;;;;;;11.70;2.80;;;;;;;;;;5085490;28;20028;-66
2022/08/02 23:12:20;;;;;;;15.27;4.88;;;;;;;;;;5088201;28;20497;-66
2022/08/02 23:14:46;;;;;;;12.30;3.88;;;;;;;;;;5072196;28;20035;-67
2022/08/02 23:19:57;;;;;;;8.02;2.92;;;;;;;;;;5089431;28;20040;-67
2022/08/02 23:22:24;;;;;;;13.68;3.03;;;;;;;;;;5074241;28;20032;-67
2022/08/02 23:24:51;;;;;;;9.93;3.15;;;;;;;;;;5070960;28;20029;-67
2022/08/02 23:27:17;;;;;;;9.77;2.67;;;;;;;;;;5073253;28;20036;-67
2022/08/02 23:29:43;;;;;;;12.82;3.10;;;;;;;;;;5073550;28;20036;-66
2022/08/02 23:32:09;;;;;;;12.60;2.88;;;;;;;;;;5070838;28;20514;-67
2022/08/02 23:34:35;;;;;;;16.52;3.25;;;;;;;;;;5070668;28;20234;-67
2022/08/02 23:37:05;;;;;;;15.73;3.28;;;;;;;;;;5071533;28;20016;-67
2022/08/02 23:39:31;;;;;;;11.68;3.67;;;;;;;;;;5062070;28;20525;-67
2022/08/02 23:41:57;;;;;;;13.23;3.55;;;;;;;;;;5080898;28;20107;-67
2022/08/02 23:44:24;;;;;;;10.20;3.15;;;;;;;;;;5079139;28;20391;-68
2022/08/02 23:46:50;;;;;;;16.20;2.78;;;;;;;;;;5070081;28;20044;-67
2022/08/02 23:49:16;;;;;;;11.85;3.25;;;;;;;;;;5069963;28;20381;-67
2022/08/02 23:51:43;;;;;;;11.98;3.35;;;;;;;;;;5070333;28;20106;-66
2022/08/02 23:54:09;;;;;;;11.30;3.05;;;;;;;;;;5069652;28;20017;-67
2022/08/02 23:56:35;;;;;;;9.68;2.88;;;;;;;;;;5070652;28;20104;-66
2022/08/02 23:59:01;;;;;;;12.18;3.08;;;;;;;;;;5085697;28;20537;-67
